Time;durP1;ratioP1;P1;durP2;ratioP2;P2;SDS_P1;SDS_P2;PMS_P1;PMS_P2;Temp;Humidity;BMP_temperature;BMP_pressure;BME280_temperature;BME280_humidity;BME280_pressure;Samples;Min_cycle;Max_cycle;Signal;HPM_P1;HPM_P2
2024/02/22 00:01:05;;;;;;;0.70;0.70;;;2.60;99.90;;;;;;5092735;28;20267;-77
2024/02/22 00:03:31;;;;;;;0.98;0.93;;;2.60;99.90;;;;;;5092419;28;20196;-78
2024/02/22 00:05:56;;;;;;;0.60;0.60;;;2.60;99.90;;;;;;5092652;28;20199;-77
2024/02/22 00:08:22;;;;;;;0.70;0.70;;;2.70;99.90;;;;;;5095340;28;20226;-77
2024/02/22 00:10:47;;;;;;;0.70;0.70;;;2.70;99.90;;;;;;5113023;28;20199;-77
2024/02/22 00:13:13;;;;;;;0.70;0.70;;;2.60;99.90;;;;;;5111463;28;20284;-78
2024/02/22 00:15:39;;;;;;;0.80;0.80;;;2.70;99.90;;;;;;5112712;28;20697;-78
2024/02/22 00:18:05;;;;;;;0.80;0.80;;;2.70;99.90;;;;;;5114452;28;20191;-77
2024/02/22 00:20:39;;;;;;;0.80;0.80;;;2.70;99.90;;;;;;5115503;28;20187;-77
2024/02/22 00:23:05;;;;;;;0.70;0.70;;;2.70;99.90;;;;;;5117037;28;20244;-78
2024/02/22 00:25:32;;;;;;;0.70;0.70;;;2.70;99.90;;;;;;5116833;28;20187;-78
2024/02/22 00:28:10;;;;;;;0.70;0.70;;;2.70;99.90;;;;;;5116833;27;20746;-78
2024/02/22 00:30:35;;;;;;;0.70;0.70;;;2.70;99.90;;;;;;5116811;28;20191;-78
2024/02/22 00:33:07;;;;;;;0.75;0.75;;;2.80;99.90;;;;;;5116816;28;20194;-78
2024/02/22 00:35:35;;;;;;;0.60;0.60;;;2.80;99.90;;;;;;5116461;28;20196;-77
2024/02/22 00:38:02;;;;;;;0.52;0.52;;;2.80;99.90;;;;;;5116596;28;20195;-78
2024/02/22 00:40:28;;;;;;;0.55;0.55;;;2.80;99.90;;;;;;5115195;28;20244;-77
2024/02/22 00:42:54;;;;;;;0.73;0.73;;;2.80;99.90;;;;;;5116709;28;20184;-77
2024/02/22 00:45:20;;;;;;;1.25;1.10;;;2.80;99.90;;;;;;5116699;28;20191;-76
2024/02/22 00:47:45;;;;;;;0.77;0.77;;;2.80;99.90;;;;;;5116489;28;20199;-77
2024/02/22 00:50:11;;;;;;;0.70;0.70;;;2.80;99.90;;;;;;5116560;28;20275;-78
2024/02/22 00:52:37;;;;;;;0.60;0.60;;;2.80;99.90;;;;;;5116306;28;20260;-78
2024/02/22 00:55:03;;;;;;;0.60;0.60;;;2.80;99.90;;;;;;5116363;28;20183;-78
2024/02/22 00:57:29;;;;;;;0.80;0.80;;;2.90;99.90;;;;;;5114915;28;20208;-76
2024/02/22 00:59:54;;;;;;;0.65;0.65;;;2.90;99.90;;;;;;5116315;28;20198;-77
2024/02/22 01:02:21;;;;;;;0.50;0.50;;;2.90;99.90;;;;;;5116162;28;20561;-76
2024/02/22 01:04:47;;;;;;;0.63;0.63;;;2.90;99.90;;;;;;5110992;28;20610;-78
2024/02/22 01:07:12;;;;;;;0.70;0.70;;;2.90;99.90;;;;;;5095856;28;20257;-77
2024/02/22 01:09:38;;;;;;;0.70;0.70;;;2.90;99.90;;;;;;5095637;28;20200;-78
2024/02/22 01:12:04;;;;;;;0.82;0.82;;;2.90;99.90;;;;;;5095699;28;20566;-78
2024/02/22 01:14:30;;;;;;;0.60;0.60;;;3.00;99.90;;;;;;5095314;28;20224;-75
2024/02/22 01:16:56;;;;;;;0.70;0.70;;;3.00;99.90;;;;;;5094084;28;20569;-75
2024/02/22 01:19:21;;;;;;;0.70;0.70;;;3.00;99.90;;;;;;5095341;28;20199;-75
2024/02/22 01:21:47;;;;;;;0.68;0.68;;;3.10;99.90;;;;;;5095393;28;20271;-76
2024/02/22 01:24:13;;;;;;;0.70;0.70;;;3.10;99.90;;;;;;5095532;28;20660;-76
2024/02/22 01:26:38;;;;;;;0.90;0.90;;;3.10;99.90;;;;;;5094089;28;20227;-76
2024/02/22 01:29:04;;;;;;;0.77;0.77;;;3.10;99.90;;;;;;5094417;28;20192;-76
2024/02/22 01:31:30;;;;;;;0.85;0.85;;;3.10;99.90;;;;;;5095239;28;20188;-75
2024/02/22 01:33:56;;;;;;;0.65;0.65;;;3.10;99.90;;;;;;5095320;28;20675;-75
2024/02/22 01:36:25;;;;;;;0.60;0.60;;;3.20;99.90;;;;;;5094952;28;20270;-76
2024/02/22 01:38:50;;;;;;;0.60;0.60;;;3.20;99.90;;;;;;5095101;28;20272;-77
2024/02/22 01:41:16;;;;;;;0.80;0.80;;;3.20;99.90;;;;;;5110822;28;20192;-77
2024/02/22 01:43:43;;;;;;;0.70;0.70;;;3.20;99.90;;;;;;5094944;28;20220;-77
2024/02/22 01:46:09;;;;;;;0.60;0.60;;;3.20;99.90;;;;;;5111020;28;20548;-80
2024/02/22 01:48:35;;;;;;;0.60;0.60;;;3.20;99.90;;;;;;5095509;28;20192;-79
2024/02/22 01:51:02;;;;;;;0.90;0.90;;;3.30;99.90;;;;;;5095310;28;20223;-79
2024/02/22 01:53:32;;;;;;;0.75;0.75;;;3.30;99.90;;;;;;5094732;28;20250;-78
2024/02/22 01:55:58;;;;;;;0.73;0.73;;;3.30;99.90;;;;;;5094754;28;20679;-78
2024/02/22 01:58:25;;;;;;;0.57;0.57;;;3.30;99.90;;;;;;5094732;28;20203;-79
2024/02/22 02:00:51;;;;;;;0.60;0.60;;;3.40;99.90;;;;;;5096291;28;20744;-78
2024/02/22 02:03:17;;;;;;;0.70;0.70;;;3.40;99.90;;;;;;5094375;28;20623;-78
2024/02/22 02:05:46;;;;;;;0.70;0.70;;;3.30;99.90;;;;;;5110058;28;20196;-78
2024/02/22 02:08:12;;;;;;;0.60;0.60;;;3.30;99.90;;;;;;5094506;28;20226;-69
2024/02/22 02:10:38;;;;;;;1.23;1.13;;;3.40;99.90;;;;;;5094125;28;20199;-69
2024/02/22 02:13:05;;;;;;;0.70;0.70;;;3.40;99.90;;;;;;5105857;28;20199;-68
2024/02/22 02:15:32;;;;;;;0.65;0.65;;;3.30;99.90;;;;;;5112983;28;20195;-69
2024/02/22 02:17:57;;;;;;;0.70;0.70;;;3.30;99.90;;;;;;5113170;28;20223;-69
2024/02/22 02:20:27;;;;;;;0.60;0.60;;;3.40;99.90;;;;;;5113165;28;20233;-69
2024/02/22 02:22:55;;;;;;;0.60;0.60;;;3.40;99.90;;;;;;5114767;28;20180;-68
2024/02/22 02:25:22;;;;;;;0.70;0.70;;;3.40;99.90;;;;;;5114471;28;20558;-69
2024/02/22 02:27:48;;;;;;;0.70;0.70;;;3.40;99.90;;;;;;5114274;28;20186;-68
2024/02/22 02:30:14;;;;;;;0.70;0.70;;;3.40;99.90;;;;;;5113063;28;20195;-68
2024/02/22 02:32:40;;;;;;;0.73;0.73;;;3.40;99.90;;;;;;5113100;28;20226;-69
2024/02/22 02:35:06;;;;;;;0.57;0.57;;;3.50;99.90;;;;;;5114416;28;20196;-68
2024/02/22 02:37:31;;;;;;;0.60;0.60;;;3.50;99.90;;;;;;5114070;28;20203;-69
2024/02/22 02:39:57;;;;;;;0.70;0.70;;;3.50;99.90;;;;;;5113085;28;20195;-69
2024/02/22 02:42:24;;;;;;;0.68;0.68;;;3.50;99.90;;;;;;5114200;28;20199;-69
2024/02/22 02:44:50;;;;;;;0.70;0.70;;;3.50;99.90;;;;;;5114341;28;20191;-70
2024/02/22 02:47:16;;;;;;;0.70;0.70;;;3.50;99.90;;;;;;5114241;28;20197;-69
2024/02/22 02:49:42;;;;;;;0.60;0.60;;;3.50;99.90;;;;;;5113938;28;20560;-70
2024/02/22 02:52:08;;;;;;;0.68;0.68;;;3.50;99.90;;;;;;5112848;28;20213;-70
2024/02/22 02:54:34;;;;;;;0.60;0.60;;;3.50;99.90;;;;;;5113902;28;20283;-70
2024/02/22 02:56:59;;;;;;;0.80;0.80;;;3.50;99.90;;;;;;5109672;28;20225;-70
2024/02/22 02:59:25;;;;;;;0.90;0.90;;;3.60;99.90;;;;;;5093444;28;20253;-70
2024/02/22 03:01:51;;;;;;;0.70;0.70;;;3.60;99.90;;;;;;5094145;28;20180;-70
2024/02/22 03:04:17;;;;;;;0.73;0.73;;;3.60;99.90;;;;;;5093576;28;20196;-69
2024/02/22 03:06:46;;;;;;;0.68;0.68;;;3.60;99.90;;;;;;5093323;28;20664;-70
2024/02/22 03:09:12;;;;;;;0.60;0.60;;;3.60;99.90;;;;;;5103907;28;20251;-69
2024/02/22 03:11:38;;;;;;;0.75;0.75;;;3.60;99.90;;;;;;5113674;28;20698;-69
2024/02/22 03:14:03;;;;;;;0.80;0.80;;;3.60;99.90;;;;;;5113510;28;20261;-69
2024/02/22 03:16:30;;;;;;;0.68;0.68;;;3.60;99.90;;;;;;5113454;28;20203;-69
2024/02/22 03:18:55;;;;;;;0.70;0.70;;;3.70;99.90;;;;;;5112391;28;20195;-70
2024/02/22 03:21:23;;;;;;;0.80;0.80;;;3.60;99.90;;;;;;5113486;28;20191;-69
2024/02/22 03:23:51;;;;;;;0.60;0.60;;;3.60;99.90;;;;;;5113388;28;20570;-69
2024/02/22 03:26:17;;;;;;;0.73;0.73;;;3.70;99.90;;;;;;5113552;28;20218;-69
2024/02/22 03:28:45;;;;;;;0.73;0.73;;;3.70;99.90;;;;;;5112029;28;20298;-70
2024/02/22 03:31:11;;;;;;;0.73;0.73;;;3.60;99.90;;;;;;5113482;28;20557;-70
2024/02/22 03:33:36;;;;;;;0.70;0.70;;;3.60;99.90;;;;;;5113316;28;20187;-68
2024/02/22 03:36:02;;;;;;;0.60;0.60;;;3.70;99.90;;;;;;5113317;28;20207;-68
2024/02/22 03:38:28;;;;;;;1.00;0.98;;;3.70;99.90;;;;;;5113135;28;20216;-68
2024/02/22 03:40:53;;;;;;;0.57;0.57;;;3.70;99.90;;;;;;5111930;28;20716;-69
2024/02/22 03:43:19;;;;;;;0.70;0.70;;;3.80;99.90;;;;;;5113086;28;20188;-69
2024/02/22 03:45:45;;;;;;;1.10;1.05;;;3.70;99.90;;;;;;5113242;28;20616;-69
2024/02/22 03:48:11;;;;;;;0.60;0.60;;;3.80;99.90;;;;;;5113148;28;20199;-70
2024/02/22 03:50:37;;;;;;;0.60;0.60;;;3.80;99.90;;;;;;5112675;28;20620;-69
2024/02/22 03:53:03;;;;;;;0.65;0.65;;;3.80;99.90;;;;;;5109927;28;20199;-69
2024/02/22 03:55:30;;;;;;;0.65;0.65;;;3.80;99.90;;;;;;5112834;28;20227;-69
2024/02/22 03:57:56;;;;;;;0.50;0.50;;;3.80;99.90;;;;;;5113061;28;20184;-70
2024/02/22 04:00:22;;;;;;;0.70;0.70;;;3.80;99.90;;;;;;5110382;28;20662;-70
2024/02/22 04:02:48;;;;;;;0.70;0.70;;;3.90;99.90;;;;;;5102969;28;20195;-70
2024/02/22 04:05:16;;;;;;;0.70;0.70;;;3.90;99.90;;;;;;5091238;28;20207;-70
2024/02/22 04:07:44;;;;;;;0.60;0.60;;;3.90;99.90;;;;;;5092386;28;20659;-70
2024/02/22 04:10:10;;;;;;;0.52;0.52;;;3.90;99.90;;;;;;5091362;28;20192;-70
2024/02/22 04:12:36;;;;;;;0.50;0.50;;;3.90;99.90;;;;;;5091083;28;20797;-70
2024/02/22 04:15:03;;;;;;;0.57;0.57;;;3.90;99.90;;;;;;5092354;28;20228;-69
2024/02/22 04:17:29;;;;;;;0.70;0.70;;;3.90;99.90;;;;;;5092525;28;20200;-69
2024/02/22 04:19:55;;;;;;;0.70;0.70;;;3.90;99.90;;;;;;5092299;28;20192;-70
2024/02/22 04:22:22;;;;;;;0.63;0.63;;;3.90;99.90;;;;;;5092360;28;20189;-70
2024/02/22 04:24:47;;;;;;;0.60;0.60;;;4.00;99.90;;;;;;5092492;28;20192;-69
2024/02/22 04:27:13;;;;;;;0.70;0.70;;;3.90;99.90;;;;;;5092481;28;20235;-69
2024/02/22 04:29:42;;;;;;;0.70;0.70;;;4.00;99.90;;;;;;5092749;28;20627;-75
2024/02/22 04:32:08;;;;;;;0.55;0.55;;;4.00;99.90;;;;;;5093048;28;20662;-75
2024/02/22 04:34:34;;;;;;;0.60;0.60;;;4.00;99.90;;;;;;5092958;28;20543;-75
2024/02/22 04:36:59;;;;;;;0.65;0.65;;;4.00;99.90;;;;;;5092845;28;20287;-75
2024/02/22 04:39:25;;;;;;;0.60;0.60;;;4.00;99.90;;;;;;5092636;28;20186;-75
2024/02/22 04:41:57;;;;;;;0.63;0.63;;;4.00;99.90;;;;;;5093536;28;20199;-74
2024/02/22 04:44:24;;;;;;;0.50;0.50;;;4.00;99.90;;;;;;5091578;28;20200;-74
2024/02/22 04:46:50;;;;;;;0.70;0.70;;;4.00;99.90;;;;;;5092995;28;20271;-74
2024/02/22 04:49:16;;;;;;;0.50;0.50;;;4.00;99.90;;;;;;5092557;28;20265;-75
2024/02/22 04:51:42;;;;;;;0.50;0.50;;;4.00;99.90;;;;;;5091616;28;20279;-75
2024/02/22 04:54:07;;;;;;;0.70;0.70;;;4.00;99.90;;;;;;5092862;28;20341;-75
2024/02/22 04:56:33;;;;;;;0.73;0.73;;;4.10;99.90;;;;;;5092578;28;20208;-75
2024/02/22 04:58:59;;;;;;;0.50;0.50;;;4.10;99.90;;;;;;5092776;28;20271;-75
2024/02/22 05:01:28;;;;;;;0.60;0.60;;;4.10;99.90;;;;;;5100390;28;20194;-75
2024/02/22 05:03:54;;;;;;;0.60;0.60;;;4.10;99.90;;;;;;5113686;28;20183;-75
2024/02/22 05:06:20;;;;;;;4.78;2.60;;;4.10;99.90;;;;;;5116814;28;20248;-74
2024/02/22 05:08:46;;;;;;;0.60;0.60;;;4.20;99.90;;;;;;5115447;28;20647;-75
2024/02/22 05:11:12;;;;;;;0.50;0.50;;;4.10;99.90;;;;;;5116524;28;20192;-75
2024/02/22 05:13:40;;;;;;;0.68;0.68;;;4.10;99.90;;;;;;5114797;28;20288;-74
2024/02/22 05:16:06;;;;;;;0.77;0.77;;;4.20;99.90;;;;;;5116516;28;20235;-74
2024/02/22 05:18:31;;;;;;;0.73;0.73;;;4.20;99.90;;;;;;5114988;28;20230;-73
2024/02/22 05:20:57;;;;;;;0.70;0.70;;;4.20;99.90;;;;;;5116122;28;20562;-73
2024/02/22 05:23:24;;;;;;;0.65;0.65;;;4.20;99.90;;;;;;5116144;28;20230;-72
2024/02/22 05:25:50;;;;;;;0.57;0.57;;;4.20;99.90;;;;;;5116189;28;20195;-73
2024/02/22 05:28:16;;;;;;;0.52;0.52;;;4.20;99.90;;;;;;5114922;28;20199;-73
2024/02/22 05:30:41;;;;;;;0.60;0.60;;;4.20;99.90;;;;;;5116014;28;20661;-74
2024/02/22 05:33:09;;;;;;;0.65;0.65;;;4.30;99.90;;;;;;5114939;28;20207;-74
2024/02/22 05:35:36;;;;;;;0.60;0.60;;;4.20;99.90;;;;;;5114386;28;20196;-74
2024/02/22 05:38:02;;;;;;;0.70;0.70;;;4.30;99.90;;;;;;5116115;28;20199;-74
2024/02/22 05:40:28;;;;;;;0.70;0.70;;;4.30;99.90;;;;;;5115894;28;20642;-74
2024/02/22 05:42:53;;;;;;;0.70;0.70;;;4.30;99.90;;;;;;5116064;28;20188;-73
2024/02/22 05:45:41;;;;;;;0.80;0.80;;;4.40;99.90;;;;;;5114575;28;20191;-74
2024/02/22 05:48:07;;;;;;;0.70;0.70;;;4.40;99.90;;;;;;5109720;28;20196;-74
2024/02/22 05:50:33;;;;;;;1.00;0.93;;;4.30;99.90;;;;;;5097494;28;20282;-75
2024/02/22 05:52:59;;;;;;;0.50;0.50;;;4.30;99.90;;;;;;5115967;28;20219;-74
2024/02/22 05:55:24;;;;;;;0.70;0.70;;;4.40;99.90;;;;;;5115739;28;20204;-75
2024/02/22 05:57:51;;;;;;;2.38;1.45;;;4.40;99.90;;;;;;5115655;28;20199;-73
2024/02/22 06:00:17;;;;;;;0.70;0.70;;;4.40;99.90;;;;;;5115682;28;20184;-74
2024/02/22 06:02:43;;;;;;;1.60;1.50;;;4.40;99.90;;;;;;5115926;28;20715;-74
2024/02/22 06:05:09;;;;;;;0.98;0.98;;;4.40;99.90;;;;;;5115735;28;20266;-74
2024/02/22 06:07:34;;;;;;;0.75;0.75;;;4.40;99.90;;;;;;5115248;28;20286;-75
2024/02/22 06:10:00;;;;;;;0.88;0.88;;;4.40;99.90;;;;;;5115345;28;20293;-74
2024/02/22 06:12:26;;;;;;;0.57;0.57;;;4.40;99.90;;;;;;5115946;28;20711;-74
2024/02/22 06:14:51;;;;;;;0.60;0.60;;;4.40;99.90;;;;;;5098519;28;20268;-74
2024/02/22 06:17:17;;;;;;;0.68;0.68;;;4.40;99.90;;;;;;5095259;28;20208;-74
2024/02/22 06:19:43;;;;;;;0.73;0.73;;;4.40;99.90;;;;;;5095021;28;20271;-74
2024/02/22 06:22:09;;;;;;;0.70;0.70;;;4.40;99.90;;;;;;5077085;28;20219;-74
2024/02/22 06:24:34;;;;;;;0.70;0.70;;;4.40;99.90;;;;;;5095001;28;20233;-74
2024/02/22 06:27:00;;;;;;;0.60;0.60;;;4.40;99.90;;;;;;5095415;28;20196;-75
2024/02/22 06:29:56;;;;;;;0.60;0.60;;;4.40;99.90;;;;;;5094991;28;20253;-75
2024/02/22 06:32:23;;;;;;;0.60;0.60;;;4.40;99.90;;;;;;5077233;28;20219;-75
2024/02/22 06:34:50;;;;;;;0.70;0.70;;;4.40;99.90;;;;;;5095335;28;20563;-74
2024/02/22 06:37:17;;;;;;;1.15;1.05;;;4.40;99.90;;;;;;5094656;28;20208;-74
2024/02/22 06:39:43;;;;;;;0.60;0.60;;;4.40;99.90;;;;;;5076266;28;20234;-74
2024/02/22 06:42:09;;;;;;;0.88;0.88;;;4.40;99.90;;;;;;5094065;28;20212;-73
2024/02/22 06:44:36;;;;;;;0.63;0.63;;;4.40;99.90;;;;;;5094345;28;20224;-74
2024/02/22 06:47:01;;;;;;;0.70;0.70;;;4.40;99.90;;;;;;5094170;28;20219;-73
2024/02/22 06:49:31;;;;;;;0.55;0.55;;;4.40;99.90;;;;;;5094552;28;20196;-72
2024/02/22 06:51:58;;;;;;;0.70;0.70;;;4.40;99.90;;;;;;5093745;28;20192;-72
2024/02/22 06:54:24;;;;;;;0.68;0.68;;;4.50;99.90;;;;;;5093475;28;20214;-72
2024/02/22 06:56:49;;;;;;;0.70;0.70;;;4.50;99.90;;;;;;5093608;28;20676;-72
2024/02/22 06:59:16;;;;;;;0.60;0.60;;;4.50;99.90;;;;;;5093553;28;20564;-71
2024/02/22 07:01:42;;;;;;;0.60;0.60;;;4.50;99.90;;;;;;5093449;28;20199;-71
2024/02/22 07:04:09;;;;;;;0.70;0.70;;;4.50;99.90;;;;;;5075180;28;20192;-71
2024/02/22 07:06:35;;;;;;;0.57;0.57;;;4.50;99.90;;;;;;5093369;28;20245;-72
2024/02/22 07:09:04;;;;;;;0.70;0.70;;;4.50;99.90;;;;;;5093391;28;20200;-72
2024/02/22 07:11:30;;;;;;;0.63;0.63;;;4.50;99.90;;;;;;5093156;28;20188;-72
2024/02/22 07:13:57;;;;;;;0.70;0.70;;;4.60;99.90;;;;;;5093239;28;20235;-72
2024/02/22 07:16:23;;;;;;;0.70;0.70;;;4.50;99.90;;;;;;5093104;28;20193;-71
2024/02/22 07:18:49;;;;;;;0.70;0.70;;;4.60;99.90;;;;;;5093272;28;20260;-72
2024/02/22 07:21:15;;;;;;;0.50;0.50;;;4.70;99.90;;;;;;5074966;28;20211;-72
2024/02/22 07:23:41;;;;;;;0.57;0.57;;;4.70;99.90;;;;;;5093052;28;20199;-72
2024/02/22 07:26:10;;;;;;;0.60;0.60;;;4.70;99.90;;;;;;5074677;28;20232;-72
2024/02/22 07:28:36;;;;;;;0.57;0.57;;;4.70;99.90;;;;;;5074294;28;20282;-72
2024/02/22 07:31:02;;;;;;;0.60;0.60;;;4.70;99.90;;;;;;5093463;28;20200;-72
2024/02/22 07:33:31;;;;;;;0.70;0.70;;;4.70;99.90;;;;;;5092894;28;20192;-72
2024/02/22 07:35:57;;;;;;;0.57;0.57;;;4.80;99.90;;;;;;5092826;28;20282;-71
2024/02/22 07:38:24;;;;;;;0.75;0.75;;;4.80;99.90;;;;;;5092304;28;20579;-72
2024/02/22 07:40:51;;;;;;;0.88;0.88;;;4.80;99.90;;;;;;5092887;28;20207;-71
2024/02/22 07:43:16;;;;;;;0.70;0.70;;;4.80;99.90;;;;;;5074930;28;20679;-73
2024/02/22 07:45:42;;;;;;;0.70;0.70;;;4.80;99.90;;;;;;5091817;28;20200;-71
2024/02/22 07:48:09;;;;;;;0.60;0.60;;;4.80;99.90;;;;;;5093378;28;20192;-71
2024/02/22 07:50:38;;;;;;;0.80;0.80;;;4.80;99.90;;;;;;5092746;28;20655;-72
2024/02/22 07:53:06;;;;;;;0.70;0.70;;;4.90;99.90;;;;;;5092645;28;20220;-72
2024/02/22 07:55:31;;;;;;;1.45;1.35;;;4.90;99.90;;;;;;5092544;28;20626;-72
2024/02/22 07:57:57;;;;;;;0.60;0.60;;;4.90;99.90;;;;;;5092870;28;20188;-76
2024/02/22 08:00:23;;;;;;;0.60;0.60;;;4.90;99.90;;;;;;5093172;28;20528;-76
2024/02/22 08:02:48;;;;;;;0.85;0.85;;;4.90;99.90;;;;;;5075079;28;20275;-76
2024/02/22 08:05:17;;;;;;;8.90;2.17;;;4.90;99.90;;;;;;5093914;28;20663;-76
2024/02/22 08:07:42;;;;;;;0.75;0.75;;;5.00;99.90;;;;;;5093761;28;20739;-76
2024/02/22 08:10:09;;;;;;;0.70;0.70;;;5.00;99.90;;;;;;5075526;28;20286;-75
2024/02/22 08:12:34;;;;;;;0.50;0.50;;;5.00;99.90;;;;;;5093332;28;20703;-76
2024/02/22 08:15:02;;;;;;;0.70;0.70;;;5.00;99.90;;;;;;5111272;28;20243;-75
2024/02/22 08:17:29;;;;;;;0.90;0.90;;;4.90;99.90;;;;;;5112401;28;20235;-75
2024/02/22 08:19:55;;;;;;;0.80;0.80;;;4.90;99.90;;;;;;5112678;28;20297;-76
2024/02/22 08:22:20;;;;;;;0.68;0.68;;;5.00;99.90;;;;;;5112582;28;20219;-74
2024/02/22 08:24:46;;;;;;;0.77;0.77;;;5.00;99.90;;;;;;5114008;28;20190;-75
2024/02/22 08:27:12;;;;;;;0.70;0.70;;;5.00;99.90;;;;;;5112384;28;20605;-75
2024/02/22 08:29:37;;;;;;;1.35;0.90;;;5.10;99.90;;;;;;5112342;28;20207;-76
2024/02/22 08:32:04;;;;;;;0.57;0.57;;;5.10;99.90;;;;;;5113945;28;20246;-76
2024/02/22 08:34:31;;;;;;;0.70;0.70;;;5.10;99.90;;;;;;5109255;28;20184;-75
2024/02/22 08:36:57;;;;;;;0.73;0.73;;;5.20;99.90;;;;;;5093981;28;20208;-76
2024/02/22 08:39:23;;;;;;;0.60;0.60;;;5.20;99.90;;;;;;5095454;28;20196;-75
2024/02/22 08:41:48;;;;;;;0.98;0.90;;;5.20;99.90;;;;;;5097608;28;20531;-75
2024/02/22 08:44:14;;;;;;;0.73;0.73;;;5.20;99.90;;;;;;5097455;28;20621;-74
2024/02/22 08:46:40;;;;;;;0.55;0.55;;;5.20;99.90;;;;;;5107296;28;20695;-74
2024/02/22 08:49:06;;;;;;;0.60;0.60;;;5.20;99.90;;;;;;5117543;28;20195;-76
2024/02/22 08:51:32;;;;;;;0.63;0.63;;;5.20;99.90;;;;;;5117823;28;20635;-76
2024/02/22 08:53:58;;;;;;;0.52;0.52;;;5.20;99.90;;;;;;5117608;28;20196;-76
2024/02/22 08:56:24;;;;;;;0.50;0.50;;;5.20;99.90;;;;;;5116557;28;20674;-76
2024/02/22 08:58:50;;;;;;;0.50;0.50;;;5.20;99.90;;;;;;5117559;28;20194;-76
2024/02/22 09:01:19;;;;;;;0.60;0.60;;;5.20;99.90;;;;;;5116785;28;20202;-75
2024/02/22 09:03:44;;;;;;;0.68;0.68;;;5.20;99.90;;;;;;5116997;28;20289;-76
2024/02/22 09:06:10;;;;;;;0.55;0.55;;;5.10;99.90;;;;;;5115528;28;20199;-76
2024/02/22 09:08:39;;;;;;;0.45;0.45;;;5.10;99.90;;;;;;5116573;28;20226;-72
2024/02/22 09:11:05;;;;;;;0.93;0.90;;;5.10;99.90;;;;;;5115171;28;20654;-72
2024/02/22 09:13:31;;;;;;;0.65;0.65;;;5.10;99.90;;;;;;5115822;28;20251;-72
2024/02/22 09:15:57;;;;;;;0.60;0.60;;;5.20;99.90;;;;;;5116012;28;20678;-72
2024/02/22 09:18:23;;;;;;;0.70;0.70;;;5.20;99.90;;;;;;5115904;28;20187;-72
2024/02/22 09:20:49;;;;;;;0.52;0.52;;;5.20;99.90;;;;;;5115897;28;20194;-72
2024/02/22 09:23:15;;;;;;;0.82;0.82;;;5.20;99.90;;;;;;5114695;28;20195;-73
2024/02/22 09:25:42;;;;;;;1.40;1.30;;;5.20;99.90;;;;;;5114312;28;20663;-73
2024/02/22 09:28:08;;;;;;;0.65;0.65;;;5.20;99.90;;;;;;5114449;28;20195;-73
2024/02/22 09:30:35;;;;;;;0.60;0.60;;;5.20;99.90;;;;;;5115236;28;20650;-74
2024/02/22 09:33:01;;;;;;;0.52;0.52;;;5.20;99.90;;;;;;5115750;28;20187;-72
2024/02/22 09:35:27;;;;;;;1.35;1.10;;;5.20;99.90;;;;;;5115515;28;20187;-73
2024/02/22 09:37:52;;;;;;;0.80;0.80;;;5.20;99.90;;;;;;5114492;28;20682;-73
2024/02/22 09:40:21;;;;;;;0.70;0.70;;;5.10;99.90;;;;;;5115490;28;20249;-73
2024/02/22 09:42:47;;;;;;;0.60;0.60;;;5.10;99.90;;;;;;5115386;28;20194;-73
2024/02/22 09:45:14;;;;;;;0.55;0.55;;;5.10;99.90;;;;;;5115557;28;20191;-72
2024/02/22 09:47:40;;;;;;;0.70;0.70;;;5.10;99.90;;;;;;5113978;28;20663;-72
2024/02/22 09:50:09;;;;;;;0.70;0.70;;;5.10;99.90;;;;;;5113494;28;20646;-72
2024/02/22 09:52:38;;;;;;;0.63;0.63;;;5.10;99.90;;;;;;5115205;28;20207;-73
2024/02/22 09:55:05;;;;;;;0.77;0.77;;;5.10;99.90;;;;;;5115344;28;20244;-73
2024/02/22 09:57:31;;;;;;;0.68;0.68;;;5.10;99.90;;;;;;5114843;28;20243;-73
2024/02/22 09:59:59;;;;;;;0.70;0.70;;;5.10;99.90;;;;;;5115116;28;20219;-72
2024/02/22 10:02:25;;;;;;;1.23;1.15;;;5.20;99.90;;;;;;5115140;28;20252;-73
2024/02/22 10:04:55;;;;;;;0.70;0.70;;;5.10;99.90;;;;;;5115193;28;20600;-70
2024/02/22 10:07:32;;;;;;;0.90;0.90;;;5.10;99.90;;;;;;5114960;28;20606;-71
2024/02/22 10:09:57;;;;;;;0.75;0.75;;;5.10;99.90;;;;;;5114997;28;20198;-71
2024/02/22 10:12:24;;;;;;;0.80;0.80;;;5.20;99.90;;;;;;5114959;28;20195;-71
2024/02/22 10:14:53;;;;;;;0.80;0.80;;;5.20;99.90;;;;;;5114774;28;20224;-71
2024/02/22 10:17:24;;;;;;;0.60;0.60;;;5.10;99.90;;;;;;5113324;28;20306;-71
2024/02/22 10:19:55;;;;;;;0.65;0.65;;;5.20;99.90;;;;;;5114906;28;20195;-68
2024/02/22 10:22:22;;;;;;;0.60;0.60;;;5.20;99.90;;;;;;5114643;28;20191;-68
2024/02/22 10:24:48;;;;;;;0.70;0.70;;;5.20;99.90;;;;;;5113481;28;20194;-67
2024/02/22 10:27:13;;;;;;;0.65;0.65;;;5.20;99.90;;;;;;5108370;28;20197;-67
2024/02/22 10:29:39;;;;;;;0.65;0.65;;;5.20;99.90;;;;;;5094063;28;20196;-67
2024/02/22 10:32:05;;;;;;;0.70;0.70;;;5.20;99.90;;;;;;5094221;28;20196;-67
2024/02/22 10:34:33;;;;;;;0.65;0.65;;;5.30;99.90;;;;;;5093984;28;20188;-67
2024/02/22 10:37:01;;;;;;;2.00;1.83;;;5.20;99.90;;;;;;5092657;28;20208;-67
2024/02/22 10:39:28;;;;;;;1.33;1.23;;;5.20;99.90;;;;;;5106393;28;20536;-68
2024/02/22 10:41:54;;;;;;;0.90;0.90;;;5.20;99.90;;;;;;5114346;28;20222;-67
2024/02/22 10:44:20;;;;;;;0.70;0.70;;;5.20;99.90;;;;;;5114437;28;20187;-69
2024/02/22 10:46:48;;;;;;;1.40;1.30;;;5.20;99.90;;;;;;5114302;28;20218;-67
2024/02/22 10:49:14;;;;;;;0.80;0.80;;;5.20;99.90;;;;;;5114470;28;20203;-67
2024/02/22 10:51:41;;;;;;;0.80;0.80;;;5.20;99.90;;;;;;5114570;28;20755;-67
2024/02/22 10:54:11;;;;;;;0.75;0.75;;;5.20;99.90;;;;;;5114337;28;20199;-67
2024/02/22 10:56:41;;;;;;;2.08;1.23;;;5.20;99.90;;;;;;5114007;28;20299;-68
2024/02/22 10:59:12;;;;;;;0.77;0.77;;;5.20;99.90;;;;;;5114117;28;20195;-67
2024/02/22 11:01:41;;;;;;;0.80;0.80;;;5.20;99.90;;;;;;5112887;28;20257;-67
2024/02/22 11:04:07;;;;;;;0.82;0.82;;;5.20;99.90;;;;;;5113985;28;20754;-68
2024/02/22 11:06:41;;;;;;;0.93;0.93;;;5.20;99.90;;;;;;5112535;28;20247;-68
2024/02/22 11:09:21;;;;;;;0.70;0.70;;;5.20;99.90;;;;;;5112542;28;20195;-68
2024/02/22 11:11:48;;;;;;;2.90;1.77;;;5.20;99.90;;;;;;5113822;28;20195;-67
2024/02/22 11:14:28;;;;;;;0.60;0.60;;;5.20;99.90;;;;;;5113702;28;20704;-68
2024/02/22 11:16:53;;;;;;;1.35;1.25;;;5.20;99.90;;;;;;5113732;28;20722;-68
2024/02/22 11:19:27;;;;;;;0.52;0.52;;;5.10;99.90;;;;;;5112300;28;20190;-68
2024/02/22 11:21:53;;;;;;;0.60;0.60;;;5.20;99.90;;;;;;5113633;28;20184;-68
2024/02/22 11:24:26;;;;;;;0.70;0.70;;;5.20;99.90;;;;;;5111965;28;20200;-68
2024/02/22 11:26:57;;;;;;;0.60;0.60;;;5.20;99.90;;;;;;5112289;28;20202;-68
2024/02/22 11:29:29;;;;;;;1.00;1.00;;;5.30;99.90;;;;;;5113615;28;20192;-78
2024/02/22 11:32:02;;;;;;;0.90;0.90;;;5.30;99.90;;;;;;5113512;28;20222;-78
2024/02/22 11:34:29;;;;;;;0.75;0.75;;;5.30;99.90;;;;;;5113267;28;20198;-79
2024/02/22 11:36:56;;;;;;;1.25;1.20;;;5.30;99.90;;;;;;5113317;28;20234;-79
2024/02/22 11:39:22;;;;;;;1.00;1.00;;;5.30;99.90;;;;;;5113269;28;20191;-78
2024/02/22 11:41:49;;;;;;;0.65;0.65;;;5.30;99.90;;;;;;5113261;28;20207;-79
2024/02/22 11:44:16;;;;;;;0.70;0.70;;;5.30;99.90;;;;;;5113407;28;20191;-79
2024/02/22 11:46:43;;;;;;;0.90;0.90;;;5.40;99.90;;;;;;5113144;28;20195;-79
2024/02/22 11:49:10;;;;;;;0.60;0.60;;;5.40;99.90;;;;;;5111924;28;20606;-79
2024/02/22 11:51:39;;;;;;;1.58;1.48;;;5.40;99.90;;;;;;5111878;28;20207;-78
2024/02/22 11:54:05;;;;;;;1.35;1.23;;;5.40;99.90;;;;;;5113220;28;20285;-79
2024/02/22 11:56:31;;;;;;;0.60;0.60;;;5.40;99.90;;;;;;5112860;28;20278;-77
2024/02/22 11:58:57;;;;;;;0.80;0.80;;;5.40;99.90;;;;;;5113104;28;20195;-78
2024/02/22 12:01:27;;;;;;;0.68;0.68;;;5.40;99.90;;;;;;5112894;28;20199;-78
2024/02/22 12:03:55;;;;;;;0.80;0.80;;;5.40;99.90;;;;;;5113041;28;20210;-78
2024/02/22 12:06:21;;;;;;;0.75;0.73;;;5.40;99.90;;;;;;5112810;28;20191;-78
2024/02/22 12:08:50;;;;;;;0.60;0.60;;;5.40;99.90;;;;;;5112976;28;20191;-79
2024/02/22 12:11:17;;;;;;;0.82;0.82;;;5.40;99.90;;;;;;5111669;28;20206;-79
2024/02/22 12:13:57;;;;;;;0.80;0.80;;;5.40;99.90;;;;;;5114951;28;20229;-79
2024/02/22 12:16:23;;;;;;;0.65;0.65;;;5.40;99.90;;;;;;5117042;28;20192;-78
2024/02/22 12:18:51;;;;;;;0.77;0.77;;;5.50;99.90;;;;;;5117080;28;20217;-79
2024/02/22 12:21:21;;;;;;;0.82;0.82;;;5.40;99.90;;;;;;5117058;28;20188;-78
2024/02/22 12:23:48;;;;;;;0.57;0.57;;;5.50;99.90;;;;;;5117261;28;20183;-79
2024/02/22 12:26:18;;;;;;;0.60;0.60;;;5.50;99.90;;;;;;5115860;28;20211;-79
2024/02/22 12:28:51;;;;;;;0.77;0.77;;;5.50;99.90;;;;;;5115538;28;20203;-78
2024/02/22 12:31:23;;;;;;;0.80;0.80;;;5.50;99.90;;;;;;5115473;28;20199;-77
2024/02/22 12:33:50;;;;;;;0.70;0.70;;;5.50;99.90;;;;;;5116848;28;20262;-79
2024/02/22 12:36:21;;;;;;;0.85;0.85;;;5.50;99.90;;;;;;5116865;28;20666;-79
2024/02/22 12:38:47;;;;;;;0.60;0.60;;;5.50;99.90;;;;;;5116839;28;20196;-79
2024/02/22 12:41:14;;;;;;;0.73;0.73;;;5.50;99.90;;;;;;5116858;28;20187;-79
2024/02/22 12:43:45;;;;;;;0.68;0.68;;;5.50;99.90;;;;;;5116578;28;20198;-80
2024/02/22 12:46:13;;;;;;;0.77;0.77;;;5.50;99.90;;;;;;5116720;28;20670;-80
2024/02/22 12:48:39;;;;;;;0.52;0.52;;;5.60;99.90;;;;;;5116490;28;20192;-80
2024/02/22 12:51:05;;;;;;;1.23;1.10;;;5.50;99.90;;;;;;5115626;28;20199;-80
2024/02/22 12:53:32;;;;;;;0.80;0.80;;;5.50;99.90;;;;;;5116877;28;20287;-80
2024/02/22 12:56:00;;;;;;;0.93;0.93;;;5.50;99.90;;;;;;5116712;28;20191;-80